sensor_id;sensor_type;location;lat;lon;timestamp;pressure;altitude;pressure_sealevel;temperature;humidity
21588;BME280;10956;48.878;13.316;2024-01-15T00:00:17;92725.22;;;-2.72;100.00
21588;BME280;10956;48.878;13.316;2024-01-15T00:02:43;92715.47;;;-2.70;100.00
21588;BME280;10956;48.878;13.316;2024-01-15T00:05:08;92712.78;;;-2.64;100.00
21588;BME280;10956;48.878;13.316;2024-01-15T00:07:33;92711.31;;;-2.71;100.00
21588;BME280;10956;48.878;13.316;2024-01-15T00:09:59;92718.59;;;-2.68;100.00
21588;BME280;10956;48.878;13.316;2024-01-15T00:12:24;92712.75;;;-2.75;100.00
21588;BME280;10956;48.878;13.316;2024-01-15T00:14:49;92705.25;;;-2.77;100.00
21588;BME280;10956;48.878;13.316;2024-01-15T00:17:15;92705.47;;;-2.78;100.00
21588;BME280;10956;48.878;13.316;2024-01-15T00:19:40;92701.75;;;-2.82;100.00
21588;BME280;10956;48.878;13.316;2024-01-15T00:22:06;92687.88;;;-2.81;100.00
21588;BME280;10956;48.878;13.316;2024-01-15T00:24:31;92690.78;;;-2.78;100.00
21588;BME280;10956;48.878;13.316;2024-01-15T00:26:56;92694.16;;;-2.77;100.00
21588;BME280;10956;48.878;13.316;2024-01-15T00:29:22;92700.31;;;-2.78;100.00
21588;BME280;10956;48.878;13.316;2024-01-15T00:31:47;92700.75;;;-2.81;100.00
21588;BME280;10956;48.878;13.316;2024-01-15T00:34:13;92697.47;;;-2.88;100.00
21588;BME280;10956;48.878;13.316;2024-01-15T00:36:38;92698.50;;;-2.89;100.00
21588;BME280;10956;48.878;13.316;2024-01-15T00:39:03;92690.19;;;-2.91;100.00
21588;BME280;10956;48.878;13.316;2024-01-15T00:41:30;92681.00;;;-2.87;100.00
21588;BME280;10956;48.878;13.316;2024-01-15T00:43:56;92688.09;;;-2.83;100.00
21588;BME280;10956;48.878;13.316;2024-01-15T00:46:21;92685.28;;;-2.81;100.00
21588;BME280;10956;48.878;13.316;2024-01-15T00:48:47;92711.41;;;-2.78;100.00
21588;BME280;10956;48.878;13.316;2024-01-15T00:51:12;92713.75;;;-2.76;100.00
21588;BME280;10956;48.878;13.316;2024-01-15T00:53:38;92703.22;;;-2.75;100.00
21588;BME280;10956;48.878;13.316;2024-01-15T00:56:04;92681.94;;;-2.70;100.00
21588;BME280;10956;48.878;13.316;2024-01-15T00:58:29;92681.50;;;-2.67;100.00
21588;BME280;10956;48.878;13.316;2024-01-15T01:00:55;92679.50;;;-2.65;100.00
21588;BME280;10956;48.878;13.316;2024-01-15T01:03:20;92679.94;;;-2.68;100.00
21588;BME280;10956;48.878;13.316;2024-01-15T01:05:48;92684.31;;;-2.69;100.00
21588;BME280;10956;48.878;13.316;2024-01-15T01:08:15;92674.22;;;-2.70;100.00
21588;BME280;10956;48.878;13.316;2024-01-15T01:10:40;92661.31;;;-2.70;100.00
21588;BME280;10956;48.878;13.316;2024-01-15T01:13:08;92667.47;;;-2.71;100.00
21588;BME280;10956;48.878;13.316;2024-01-15T01:15:33;92660.88;;;-2.67;100.00
21588;BME280;10956;48.878;13.316;2024-01-15T01:17:59;92668.03;;;-2.69;100.00
21588;BME280;10956;48.878;13.316;2024-01-15T01:20:24;92666.47;;;-2.70;100.00
21588;BME280;10956;48.878;13.316;2024-01-15T01:22:50;92670.06;;;-2.71;100.00
21588;BME280;10956;48.878;13.316;2024-01-15T01:25:15;92666.34;;;-2.75;100.00
21588;BME280;10956;48.878;13.316;2024-01-15T01:27:40;92650.78;;;-2.69;100.00
21588;BME280;10956;48.878;13.316;2024-01-15T01:30:06;92655.72;;;-2.67;100.00
21588;BME280;10956;48.878;13.316;2024-01-15T01:32:32;92650.00;;;-2.69;100.00
21588;BME280;10956;48.878;13.316;2024-01-15T01:34:57;92657.28;;;-2.66;100.00
21588;BME280;10956;48.878;13.316;2024-01-15T01:37:23;92643.38;;;-2.65;100.00
21588;BME280;10956;48.878;13.316;2024-01-15T01:39:48;92657.84;;;-2.64;100.00
21588;BME280;10956;48.878;13.316;2024-01-15T01:42:14;92660.88;;;-2.67;100.00
21588;BME280;10956;48.878;13.316;2024-01-15T01:44:39;92653.13;;;-2.67;100.00
21588;BME280;10956;48.878;13.316;2024-01-15T01:47:05;92651.00;;;-2.70;100.00
21588;BME280;10956;48.878;13.316;2024-01-15T01:49:31;92659.63;;;-2.76;100.00
21588;BME280;10956;48.878;13.316;2024-01-15T01:51:58;92670.69;;;-2.87;100.00
21588;BME280;10956;48.878;13.316;2024-01-15T01:54:27;92671.84;;;-2.83;100.00
21588;BME280;10956;48.878;13.316;2024-01-15T01:56:54;92686.16;;;-2.87;100.00
21588;BME280;10956;48.878;13.316;2024-01-15T01:59:21;92684.03;;;-2.90;100.00
21588;BME280;10956;48.878;13.316;2024-01-15T02:01:48;92685.03;;;-2.91;100.00
21588;BME280;10956;48.878;13.316;2024-01-15T02:04:15;92683.34;;;-2.98;100.00
21588;BME280;10956;48.878;13.316;2024-01-15T02:06:40;92686.59;;;-2.90;100.00
21588;BME280;10956;48.878;13.316;2024-01-15T02:09:07;92677.75;;;-2.95;100.00
21588;BME280;10956;48.878;13.316;2024-01-15T02:11:33;92669.00;;;-2.94;100.00
21588;BME280;10956;48.878;13.316;2024-01-15T02:13:59;92658.47;;;-2.92;100.00
21588;BME280;10956;48.878;13.316;2024-01-15T02:16:24;92669.31;;;-3.02;100.00
21588;BME280;10956;48.878;13.316;2024-01-15T02:18:49;92682.06;;;-3.07;100.00
21588;BME280;10956;48.878;13.316;2024-01-15T02:21:15;92687.22;;;-3.07;100.00
21588;BME280;10956;48.878;13.316;2024-01-15T02:23:41;92683.78;;;-3.01;100.00
21588;BME280;10956;48.878;13.316;2024-01-15T02:26:06;92685.91;;;-2.98;100.00
21588;BME280;10956;48.878;13.316;2024-01-15T02:28:33;92691.50;;;-3.01;100.00
21588;BME280;10956;48.878;13.316;2024-01-15T02:30:59;92693.66;;;-2.98;100.00
21588;BME280;10956;48.878;13.316;2024-01-15T02:33:24;92697.78;;;-2.97;100.00
21588;BME280;10956;48.878;13.316;2024-01-15T02:35:50;92701.81;;;-3.01;100.00
21588;BME280;10956;48.878;13.316;2024-01-15T02:38:16;92701.59;;;-2.99;100.00
21588;BME280;10956;48.878;13.316;2024-01-15T02:40:43;92703.59;;;-3.01;100.00
21588;BME280;10956;48.878;13.316;2024-01-15T02:43:09;92706.50;;;-3.09;100.00
21588;BME280;10956;48.878;13.316;2024-01-15T02:45:34;92710.41;;;-3.07;100.00
21588;BME280;10956;48.878;13.316;2024-01-15T02:48:00;92707.59;;;-3.17;100.00
21588;BME280;10956;48.878;13.316;2024-01-15T02:50:26;92705.13;;;-3.12;100.00
21588;BME280;10956;48.878;13.316;2024-01-15T02:52:52;92714.31;;;-3.16;100.00
21588;BME280;10956;48.878;13.316;2024-01-15T02:55:17;92715.09;;;-3.15;100.00
21588;BME280;10956;48.878;13.316;2024-01-15T02:57:43;92717.03;;;-3.11;100.00
21588;BME280;10956;48.878;13.316;2024-01-15T03:00:09;92725.75;;;-3.12;100.00
21588;BME280;10956;48.878;13.316;2024-01-15T03:02:38;92725.75;;;-3.12;100.00
21588;BME280;10956;48.878;13.316;2024-01-15T03:05:10;92730.13;;;-3.12;100.00
21588;BME280;10956;48.878;13.316;2024-01-15T03:07:35;92724.75;;;-3.11;100.00
21588;BME280;10956;48.878;13.316;2024-01-15T03:10:01;92722.59;;;-3.14;100.00
21588;BME280;10956;48.878;13.316;2024-01-15T03:12:26;92729.69;;;-3.09;100.00
21588;BME280;10956;48.878;13.316;2024-01-15T03:14:52;92726.19;;;-3.15;100.00
21588;BME280;10956;48.878;13.316;2024-01-15T03:17:17;92740.06;;;-3.16;100.00
21588;BME280;10956;48.878;13.316;2024-01-15T03:19:42;92744.88;;;-3.19;100.00
21588;BME280;10956;48.878;13.316;2024-01-15T03:22:08;92738.50;;;-3.17;100.00
21588;BME280;10956;48.878;13.316;2024-01-15T03:24:34;92745.38;;;-3.11;100.00
21588;BME280;10956;48.878;13.316;2024-01-15T03:26:59;92747.81;;;-3.16;100.00
21588;BME280;10956;48.878;13.316;2024-01-15T03:29:25;92745.09;;;-3.21;100.00
21588;BME280;10956;48.878;13.316;2024-01-15T03:31:51;92747.66;;;-3.21;100.00
21588;BME280;10956;48.878;13.316;2024-01-15T03:34:16;92752.38;;;-3.18;100.00
21588;BME280;10956;48.878;13.316;2024-01-15T03:36:42;92744.53;;;-3.23;100.00
21588;BME280;10956;48.878;13.316;2024-01-15T03:39:07;92746.09;;;-3.22;100.00
21588;BME280;10956;48.878;13.316;2024-01-15T03:41:33;92742.94;;;-3.24;100.00
21588;BME280;10956;48.878;13.316;2024-01-15T03:43:58;92741.81;;;-3.28;100.00
21588;BME280;10956;48.878;13.316;2024-01-15T03:46:24;92742.16;;;-3.24;100.00
21588;BME280;10956;48.878;13.316;2024-01-15T03:48:49;92737.53;;;-3.34;100.00
21588;BME280;10956;48.878;13.316;2024-01-15T03:51:17;92735.94;;;-3.35;100.00
21588;BME280;10956;48.878;13.316;2024-01-15T03:53:43;92738.97;;;-3.38;100.00
21588;BME280;10956;48.878;13.316;2024-01-15T03:56:08;92735.94;;;-3.35;100.00
21588;BME280;10956;48.878;13.316;2024-01-15T03:58:33;92728.44;;;-3.37;100.00
21588;BME280;10956;48.878;13.316;2024-01-15T04:00:59;92728.56;;;-3.32;100.00
21588;BME280;10956;48.878;13.316;2024-01-15T04:03:24;92730.81;;;-3.35;100.00
21588;BME280;10956;48.878;13.316;2024-01-15T04:05:50;92718.06;;;-3.30;100.00
21588;BME280;10956;48.878;13.316;2024-01-15T04:08:15;92724.34;;;-3.26;100.00
21588;BME280;10956;48.878;13.316;2024-01-15T04:10:40;92722.34;;;-3.24;100.00
21588;BME280;10956;48.878;13.316;2024-01-15T04:13:06;92720.78;;;-3.25;100.00
21588;BME280;10956;48.878;13.316;2024-01-15T04:15:32;92727.94;;;-3.27;100.00
21588;BME280;10956;48.878;13.316;2024-01-15T04:17:57;92720.34;;;-3.22;100.00
21588;BME280;10956;48.878;13.316;2024-01-15T04:20:23;92718.75;;;-3.23;100.00
21588;BME280;10956;48.878;13.316;2024-01-15T04:22:48;92716.03;;;-3.28;100.00
21588;BME280;10956;48.878;13.316;2024-01-15T04:25:14;92720.78;;;-3.25;100.00
21588;BME280;10956;48.878;13.316;2024-01-15T04:27:39;92713.59;;;-3.23;100.00
21588;BME280;10956;48.878;13.316;2024-01-15T04:30:05;92709.81;;;-3.20;100.00
21588;BME280;10956;48.878;13.316;2024-01-15T04:32:30;92706.88;;;-3.24;100.00
21588;BME280;10956;48.878;13.316;2024-01-15T04:34:56;92708.31;;;-3.28;100.00
21588;BME280;10956;48.878;13.316;2024-01-15T04:37:21;92718.50;;;-3.33;100.00
21588;BME280;10956;48.878;13.316;2024-01-15T04:39:46;92724.00;;;-3.30;100.00
21588;BME280;10956;48.878;13.316;2024-01-15T04:42:12;92723.47;;;-3.20;100.00
21588;BME280;10956;48.878;13.316;2024-01-15T04:44:37;92730.63;;;-3.22;100.00
21588;BME280;10956;48.878;13.316;2024-01-15T04:47:03;92739.22;;;-3.28;100.00
21588;BME280;10956;48.878;13.316;2024-01-15T04:49:28;92735.22;;;-3.24;100.00
21588;BME280;10956;48.878;13.316;2024-01-15T04:51:54;92740.81;;;-3.27;100.00
21588;BME280;10956;48.878;13.316;2024-01-15T04:54:20;92733.16;;;-3.34;100.00
21588;BME280;10956;48.878;13.316;2024-01-15T04:56:45;92736.59;;;-3.40;100.00
21588;BME280;10956;48.878;13.316;2024-01-15T04:59:11;92733.09;;;-3.45;100.00
21588;BME280;10956;48.878;13.316;2024-01-15T05:01:36;92737.09;;;-3.49;100.00
21588;BME280;10956;48.878;13.316;2024-01-15T05:04:02;92734.59;;;-3.56;100.00
21588;BME280;10956;48.878;13.316;2024-01-15T05:06:27;92731.59;;;-3.71;100.00
21588;BME280;10956;48.878;13.316;2024-01-15T05:08:53;92733.75;;;-3.68;100.00
21588;BME280;10956;48.878;13.316;2024-01-15T05:11:19;92735.97;;;-3.72;100.00
21588;BME280;10956;48.878;13.316;2024-01-15T05:13:44;92730.66;;;-3.59;100.00
21588;BME280;10956;48.878;13.316;2024-01-15T05:16:09;92723.53;;;-3.56;100.00
21588;BME280;10956;48.878;13.316;2024-01-15T05:18:35;92726.31;;;-3.58;100.00
21588;BME280;10956;48.878;13.316;2024-01-15T05:21:03;92722.81;;;-3.64;100.00
21588;BME280;10956;48.878;13.316;2024-01-15T05:23:28;92737.41;;;-3.58;100.00
21588;BME280;10956;48.878;13.316;2024-01-15T05:25:54;92736.25;;;-3.43;100.00
21588;BME280;10956;48.878;13.316;2024-01-15T05:28:19;92735.47;;;-3.44;100.00
21588;BME280;10956;48.878;13.316;2024-01-15T05:30:44;92738.09;;;-3.50;100.00
21588;BME280;10956;48.878;13.316;2024-01-15T05:33:10;92742.63;;;-3.46;100.00
21588;BME280;10956;48.878;13.316;2024-01-15T05:35:35;92746.25;;;-3.35;100.00
21588;BME280;10956;48.878;13.316;2024-01-15T05:38:01;92739.38;;;-3.41;100.00
21588;BME280;10956;48.878;13.316;2024-01-15T05:40:28;92738.38;;;-3.40;100.00
21588;BME280;10956;48.878;13.316;2024-01-15T05:42:53;92725.06;;;-3.37;100.00
21588;BME280;10956;48.878;13.316;2024-01-15T05:45:18;92726.06;;;-3.38;100.00
21588;BME280;10956;48.878;13.316;2024-01-15T05:47:44;92734.25;;;-3.41;100.00
21588;BME280;10956;48.878;13.316;2024-01-15T05:50:09;92735.59;;;-3.39;100.00
21588;BME280;10956;48.878;13.316;2024-01-15T05:52:35;92723.72;;;-3.40;100.00
21588;BME280;10956;48.878;13.316;2024-01-15T05:55:01;92720.94;;;-3.38;100.00
21588;BME280;10956;48.878;13.316;2024-01-15T05:57:26;92726.66;;;-3.36;100.00
21588;BME280;10956;48.878;13.316;2024-01-15T05:59:51;92721.34;;;-3.41;100.00
21588;BME280;10956;48.878;13.316;2024-01-15T06:02:17;92711.41;;;-3.38;100.00
21588;BME280;10956;48.878;13.316;2024-01-15T06:04:42;92729.66;;;-3.39;100.00
21588;BME280;10956;48.878;13.316;2024-01-15T06:07:08;92713.78;;;-3.36;100.00
21588;BME280;10956;48.878;13.316;2024-01-15T06:09:33;92711.75;;;-3.34;100.00
21588;BME280;10956;48.878;13.316;2024-01-15T06:11:59;92715.44;;;-3.42;100.00
21588;BME280;10956;48.878;13.316;2024-01-15T06:14:24;92720.78;;;-3.43;100.00
21588;BME280;10956;48.878;13.316;2024-01-15T06:16:49;92722.56;;;-3.44;100.00
21588;BME280;10956;48.878;13.316;2024-01-15T06:19:15;92722.94;;;-3.40;100.00
21588;BME280;10956;48.878;13.316;2024-01-15T06:21:40;92713.78;;;-3.36;100.00
21588;BME280;10956;48.878;13.316;2024-01-15T06:24:06;92715.91;;;-3.33;100.00
21588;BME280;10956;48.878;13.316;2024-01-15T06:26:31;92709.19;;;-3.34;100.00
21588;BME280;10956;48.878;13.316;2024-01-15T06:28:57;92697.00;;;-3.27;100.00
21588;BME280;10956;48.878;13.316;2024-01-15T06:31:22;92690.50;;;-3.30;100.00
21588;BME280;10956;48.878;13.316;2024-01-15T06:33:47;92693.16;;;-3.36;100.00
21588;BME280;10956;48.878;13.316;2024-01-15T06:36:14;92687.44;;;-3.38;100.00
21588;BME280;10956;48.878;13.316;2024-01-15T06:38:42;92690.59;;;-3.36;100.00
21588;BME280;10956;48.878;13.316;2024-01-15T06:41:08;92695.88;;;-3.31;100.00
21588;BME280;10956;48.878;13.316;2024-01-15T06:43:33;92692.56;;;-3.20;100.00
21588;BME280;10956;48.878;13.316;2024-01-15T06:45:59;92692.66;;;-3.27;100.00
21588;BME280;10956;48.878;13.316;2024-01-15T06:48:24;92694.31;;;-3.32;100.00
21588;BME280;10956;48.878;13.316;2024-01-15T06:50:50;92692.56;;;-3.20;100.00
21588;BME280;10956;48.878;13.316;2024-01-15T06:53:15;92697.84;;;-3.15;100.00
21588;BME280;10956;48.878;13.316;2024-01-15T06:55:41;92700.84;;;-3.18;100.00
21588;BME280;10956;48.878;13.316;2024-01-15T06:58:06;92713.75;;;-3.18;100.00
21588;BME280;10956;48.878;13.316;2024-01-15T07:00:31;92702.44;;;-3.17;100.00
21588;BME280;10956;48.878;13.316;2024-01-15T07:02:57;92700.34;;;-3.08;100.00
21588;BME280;10956;48.878;13.316;2024-01-15T07:05:23;92699.56;;;-3.09;100.00
21588;BME280;10956;48.878;13.316;2024-01-15T07:07:49;92697.97;;;-3.10;100.00
21588;BME280;10956;48.878;13.316;2024-01-15T07:10:15;92698.06;;;-3.16;100.00
21588;BME280;10956;48.878;13.316;2024-01-15T07:12:44;92712.88;;;-3.12;100.00
21588;BME280;10956;48.878;13.316;2024-01-15T07:15:10;92709.06;;;-3.09;100.00
21588;BME280;10956;48.878;13.316;2024-01-15T07:17:36;92709.53;;;-3.01;100.00
21588;BME280;10956;48.878;13.316;2024-01-15T07:20:07;92705.28;;;-3.07;100.00
21588;BME280;10956;48.878;13.316;2024-01-15T07:22:33;92708.63;;;-3.06;100.00
21588;BME280;10956;48.878;13.316;2024-01-15T07:24:59;92708.53;;;-3.00;100.00
21588;BME280;10956;48.878;13.316;2024-01-15T07:27:24;92700.03;;;-3.00;100.00
21588;BME280;10956;48.878;13.316;2024-01-15T07:29:50;92697.53;;;-3.07;100.00
21588;BME280;10956;48.878;13.316;2024-01-15T07:32:15;92698.59;;;-2.96;100.00
21588;BME280;10956;48.878;13.316;2024-01-15T07:34:41;92702.16;;;-2.97;100.00
21588;BME280;10956;48.878;13.316;2024-01-15T07:37:06;92703.44;;;-2.88;100.00
21588;BME280;10956;48.878;13.316;2024-01-15T07:39:33;92709.25;;;-2.92;100.00
21588;BME280;10956;48.878;13.316;2024-01-15T07:41:58;92703.50;;;-2.95;100.00
21588;BME280;10956;48.878;13.316;2024-01-15T07:44:23;92695.69;;;-2.88;100.00
21588;BME280;10956;48.878;13.316;2024-01-15T07:46:49;92690.88;;;-2.84;100.00
21588;BME280;10956;48.878;13.316;2024-01-15T07:49:14;92693.59;;;-2.79;100.00
21588;BME280;10956;48.878;13.316;2024-01-15T07:51:40;92693.16;;;-2.76;100.00
21588;BME280;10956;48.878;13.316;2024-01-15T07:54:06;92691.66;;;-2.84;100.00
21588;BME280;10956;48.878;13.316;2024-01-15T07:56:32;92697.06;;;-2.74;100.00
21588;BME280;10956;48.878;13.316;2024-01-15T07:58:57;92698.41;;;-2.71;100.00
21588;BME280;10956;48.878;13.316;2024-01-15T08:01:23;92698.88;;;-2.74;100.00
21588;BME280;10956;48.878;13.316;2024-01-15T08:03:48;92701.69;;;-2.64;100.00
21588;BME280;10956;48.878;13.316;2024-01-15T08:06:13;92700.91;;;-2.65;100.00
21588;BME280;10956;48.878;13.316;2024-01-15T08:08:39;92696.09;;;-2.61;100.00
21588;BME280;10956;48.878;13.316;2024-01-15T08:11:05;92692.50;;;-2.60;100.00
21588;BME280;10956;48.878;13.316;2024-01-15T08:13:30;92698.44;;;-2.59;100.00
21588;BME280;10956;48.878;13.316;2024-01-15T08:15:56;92697.09;;;-2.62;100.00
21588;BME280;10956;48.878;13.316;2024-01-15T08:18:21;92695.75;;;-2.53;100.00
21588;BME280;10956;48.878;13.316;2024-01-15T08:20:47;92691.50;;;-2.47;100.00
21588;BME280;10956;48.878;13.316;2024-01-15T08:23:12;92689.59;;;-2.52;100.00
21588;BME280;10956;48.878;13.316;2024-01-15T08:25:37;92694.31;;;-2.49;100.00
21588;BME280;10956;48.878;13.316;2024-01-15T08:28:03;92693.31;;;-2.36;100.00
21588;BME280;10956;48.878;13.316;2024-01-15T08:30:29;92705.09;;;-2.29;100.00
21588;BME280;10956;48.878;13.316;2024-01-15T08:32:55;92703.63;;;-2.24;100.00
21588;BME280;10956;48.878;13.316;2024-01-15T08:35:20;92700.63;;;-2.21;100.00
21588;BME280;10956;48.878;13.316;2024-01-15T08:37:51;92691.06;;;-2.33;100.00
21588;BME280;10956;48.878;13.316;2024-01-15T08:40:17;92684.91;;;-2.32;100.00
21588;BME280;10956;48.878;13.316;2024-01-15T08:42:43;92682.00;;;-2.23;100.00
21588;BME280;10956;48.878;13.316;2024-01-15T08:45:09;92682.66;;;-2.16;100.00
21588;BME280;10956;48.878;13.316;2024-01-15T08:47:35;92680.09;;;-2.16;100.00
21588;BME280;10956;48.878;13.316;2024-01-15T08:50:01;92675.81;;;-2.22;100.00
21588;BME280;10956;48.878;13.316;2024-01-15T08:52:26;92677.50;;;-2.16;100.00
21588;BME280;10956;48.878;13.316;2024-01-15T08:54:52;92663.94;;;-2.12;100.00
21588;BME280;10956;48.878;13.316;2024-01-15T08:57:17;92661.00;;;-2.04;100.00
21588;BME280;10956;48.878;13.316;2024-01-15T08:59:42;92664.47;;;-1.98;100.00
21588;BME280;10956;48.878;13.316;2024-01-15T09:02:08;92661.00;;;-1.92;100.00
21588;BME280;10956;48.878;13.316;2024-01-15T09:04:33;92667.81;;;-1.86;100.00
21588;BME280;10956;48.878;13.316;2024-01-15T09:06:59;92667.72;;;-1.91;100.00
21588;BME280;10956;48.878;13.316;2024-01-15T09:09:24;92664.22;;;-1.85;100.00
21588;BME280;10956;48.878;13.316;2024-01-15T09:11:51;92671.63;;;-1.77;100.00
21588;BME280;10956;48.878;13.316;2024-01-15T09:14:16;92666.09;;;-1.69;100.00
21588;BME280;10956;48.878;13.316;2024-01-15T09:16:42;92668.16;;;-1.82;100.00
21588;BME280;10956;48.878;13.316;2024-01-15T09:19:07;92664.44;;;-1.75;100.00
21588;BME280;10956;48.878;13.316;2024-01-15T09:21:32;92668.03;;;-1.76;100.00
21588;BME280;10956;48.878;13.316;2024-01-15T09:23:58;92670.72;;;-1.71;100.00
21588;BME280;10956;48.878;13.316;2024-01-15T09:26:23;92662.97;;;-1.71;100.00
21588;BME280;10956;48.878;13.316;2024-01-15T09:28:49;92671.63;;;-1.77;100.00
21588;BME280;10956;48.878;13.316;2024-01-15T09:31:15;92663.66;;;-1.75;100.00
21588;BME280;10956;48.878;13.316;2024-01-15T09:33:42;92670.06;;;-1.78;100.00
21588;BME280;10956;48.878;13.316;2024-01-15T09:36:08;92664.34;;;-1.80;100.00
21588;BME280;10956;48.878;13.316;2024-01-15T09:38:33;92667.81;;;-1.86;100.00
21588;BME280;10956;48.878;13.316;2024-01-15T09:41:00;92671.56;;;-2.05;100.00
21588;BME280;10956;48.878;13.316;2024-01-15T09:43:25;92673.91;;;-2.04;100.00
21588;BME280;10956;48.878;13.316;2024-01-15T09:45:53;92681.09;;;-1.94;100.00
21588;BME280;10956;48.878;13.316;2024-01-15T09:48:19;92676.94;;;-2.07;100.00
21588;BME280;10956;48.878;13.316;2024-01-15T09:50:44;92668.97;;;-2.05;100.00
21588;BME280;10956;48.878;13.316;2024-01-15T09:53:11;92663.81;;;-2.05;100.00
21588;BME280;10956;48.878;13.316;2024-01-15T09:55:37;92671.00;;;-2.07;100.00
21588;BME280;10956;48.878;13.316;2024-01-15T09:58:05;92671.56;;;-2.05;100.00
21588;BME280;10956;48.878;13.316;2024-01-15T10:00:31;92672.44;;;-2.11;100.00
21588;BME280;10956;48.878;13.316;2024-01-15T10:02:58;92661.69;;;-2.08;100.00
21588;BME280;10956;48.878;13.316;2024-01-15T10:05:26;92665.84;;;-2.07;100.00
21588;BME280;10956;48.878;13.316;2024-01-15T10:07:53;92660.09;;;-1.98;100.00
21588;BME280;10956;48.878;13.316;2024-01-15T10:10:18;92664.16;;;-2.02;100.00
21588;BME280;10956;48.878;13.316;2024-01-15T10:12:44;92662.91;;;-1.99;100.00
21588;BME280;10956;48.878;13.316;2024-01-15T10:15:10;92656.84;;;-1.93;100.00
21588;BME280;10956;48.878;13.316;2024-01-15T10:17:39;92662.00;;;-1.93;100.00
21588;BME280;10956;48.878;13.316;2024-01-15T10:20:11;92658.53;;;-1.99;100.00
21588;BME280;10956;48.878;13.316;2024-01-15T10:22:41;92656.38;;;-1.90;100.00
21588;BME280;10956;48.878;13.316;2024-01-15T10:25:10;92656.16;;;-2.00;100.00
21588;BME280;10956;48.878;13.316;2024-01-15T10:27:36;92657.53;;;-2.09;100.00
21588;BME280;10956;48.878;13.316;2024-01-15T10:30:01;92653.47;;;-2.05;100.00
21588;BME280;10956;48.878;13.316;2024-01-15T10:32:28;92648.09;;;-1.92;100.00
21588;BME280;10956;48.878;13.316;2024-01-15T10:34:54;92647.16;;;-1.86;100.00
21588;BME280;10956;48.878;13.316;2024-01-15T10:37:19;92652.34;;;-1.86;100.00
21588;BME280;10956;48.878;13.316;2024-01-15T10:39:46;92642.56;;;-1.84;100.00
21588;BME280;10956;48.878;13.316;2024-01-15T10:42:12;92655.03;;;-1.81;100.00
21588;BME280;10956;48.878;13.316;2024-01-15T10:44:37;92647.16;;;-1.86;100.00
21588;BME280;10956;48.878;13.316;2024-01-15T10:47:04;92654.47;;;-1.83;100.00
21588;BME280;10956;48.878;13.316;2024-01-15T10:49:29;92653.00;;;-1.79;100.00
21588;BME280;10956;48.878;13.316;2024-01-15T10:51:57;92639.53;;;-1.81;100.00
21588;BME280;10956;48.878;13.316;2024-01-15T10:54:23;92642.53;;;-1.72;100.00
21588;BME280;10956;48.878;13.316;2024-01-15T10:56:50;92640.84;;;-1.67;100.00
21588;BME280;10956;48.878;13.316;2024-01-15T10:59:16;92650.06;;;-1.71;100.00
21588;BME280;10956;48.878;13.316;2024-01-15T11:01:45;92640.50;;;-1.70;100.00
21588;BME280;10956;48.878;13.316;2024-01-15T11:04:11;92633.31;;;-1.68;100.00
21588;BME280;10956;48.878;13.316;2024-01-15T11:06:45;92637.91;;;-1.58;100.00
21588;BME280;10956;48.878;13.316;2024-01-15T11:09:14;92628.03;;;-1.61;100.00
21588;BME280;10956;48.878;13.316;2024-01-15T11:11:45;92631.94;;;-1.59;100.00
21588;BME280;10956;48.878;13.316;2024-01-15T11:14:35;92627.13;;;-1.55;100.00
21588;BME280;10956;48.878;13.316;2024-01-15T11:17:01;92616.97;;;-1.45;100.00
21588;BME280;10956;48.878;13.316;2024-01-15T11:19:38;92613.38;;;-1.44;100.00
21588;BME280;10956;48.878;13.316;2024-01-15T11:24:57;92612.59;;;-1.45;100.00
21588;BME280;10956;48.878;13.316;2024-01-15T11:30:11;92604.59;;;-1.43;100.00
21588;BME280;10956;48.878;13.316;2024-01-15T11:32:37;92601.47;;;-1.45;100.00
21588;BME280;10956;48.878;13.316;2024-01-15T11:35:06;92596.72;;;-1.37;100.00
21588;BME280;10956;48.878;13.316;2024-01-15T11:40:22;92601.97;;;-1.32;100.00
21588;BME280;10956;48.878;13.316;2024-01-15T11:42:48;92602.09;;;-1.38;100.00
21588;BME280;10956;48.878;13.316;2024-01-15T11:45:21;92603.03;;;-1.44;100.00
21588;BME280;10956;48.878;13.316;2024-01-15T11:48:12;92599.44;;;-1.43;100.00
21588;BME280;10956;48.878;13.316;2024-01-15T11:50:41;92594.72;;;-1.46;100.00
21588;BME280;10956;48.878;13.316;2024-01-15T11:56:02;92591.72;;;-1.55;100.00
21588;BME280;10956;48.878;13.316;2024-01-15T11:58:28;92591.19;;;-1.57;100.00
21588;BME280;10956;48.878;13.316;2024-01-15T12:00:54;92584.75;;;-1.54;100.00
21588;BME280;10956;48.878;13.316;2024-01-15T12:03:24;92586.44;;;-1.48;100.00
21588;BME280;10956;48.878;13.316;2024-01-15T12:05:49;92585.41;;;-1.47;100.00
21588;BME280;10956;48.878;13.316;2024-01-15T12:08:20;92588.63;;;-1.40;100.00
21588;BME280;10956;48.878;13.316;2024-01-15T12:10:46;92584.91;;;-1.33;100.00
21588;BME280;10956;48.878;13.316;2024-01-15T12:13:13;92591.94;;;-1.28;100.00
21588;BME280;10956;48.878;13.316;2024-01-15T12:15:38;92583.97;;;-1.26;100.00
21588;BME280;10956;48.878;13.316;2024-01-15T12:18:09;92577.47;;;-1.29;100.00
21588;BME280;10956;48.878;13.316;2024-01-15T12:20:35;92583.81;;;-1.20;100.00
21588;BME280;10956;48.878;13.316;2024-01-15T12:23:01;92585.38;;;-1.19;100.00
21588;BME280;10956;48.878;13.316;2024-01-15T12:25:30;92567.84;;;-1.17;100.00
21588;BME280;10956;48.878;13.316;2024-01-15T12:27:56;92571.38;;;-1.06;100.00
21588;BME280;10956;48.878;13.316;2024-01-15T12:30:21;92565.50;;;-1.02;100.00
21588;BME280;10956;48.878;13.316;2024-01-15T12:32:47;92564.09;;;-0.92;100.00
21588;BME280;10956;48.878;13.316;2024-01-15T12:35:13;92561.28;;;-0.91;100.00
21588;BME280;10956;48.878;13.316;2024-01-15T12:37:40;92555.16;;;-0.68;100.00
21588;BME280;10956;48.878;13.316;2024-01-15T12:40:07;92563.63;;;-0.56;100.00
21588;BME280;10956;48.878;13.316;2024-01-15T12:42:33;92555.44;;;-0.48;100.00
21588;BME280;10956;48.878;13.316;2024-01-15T12:45:00;92563.00;;;-0.63;100.00